createdAt,value
2022-10-23T00:02:45.843Z,10.40
2022-10-23T00:05:49.210Z,10.52
2022-10-23T00:08:53.681Z,9.85
2022-10-23T00:11:56.961Z,8.90
2022-10-23T00:14:59.971Z,8.70
2022-10-23T00:18:03.073Z,7.85
2022-10-23T00:21:08.314Z,7.45
2022-10-23T00:24:12.798Z,8.23
2022-10-23T00:27:15.815Z,7.03
2022-10-23T00:30:18.930Z,8.10
2022-10-23T00:33:21.969Z,7.78
2022-10-23T00:36:25.128Z,7.53
2022-10-23T00:39:29.822Z,7.13
2022-10-23T00:42:32.864Z,6.53
2022-10-23T00:45:36.123Z,7.43
2022-10-23T00:48:39.234Z,7.33
2022-10-23T00:51:46.313Z,7.38
2022-10-23T00:54:50.998Z,5.95
2022-10-23T00:57:54.586Z,6.10
2022-10-23T01:00:58.242Z,5.47
2022-10-23T01:04:03.110Z,6.05
2022-10-23T01:07:16.642Z,5.40
2022-10-23T01:10:32.655Z,5.30
2022-10-23T01:13:45.640Z,5.68
2022-10-23T01:17:01.463Z,5.70
2022-10-23T01:20:26.652Z,5.70
2022-10-23T01:23:53.789Z,5.18
2022-10-23T01:27:23.638Z,5.60
2022-10-23T01:30:27.415Z,5.15
2022-10-23T01:33:38.879Z,4.68
2022-10-23T01:36:47.914Z,4.95
2022-10-23T01:39:57.219Z,5.85
2022-10-23T01:43:10.721Z,4.60
2022-10-23T01:46:17.955Z,6.07
2022-10-23T01:49:23.976Z,4.20
2022-10-23T01:52:27.393Z,4.05
2022-10-23T01:55:32.407Z,4.47
2022-10-23T01:58:38.531Z,4.30
2022-10-23T02:01:46.474Z,4.13
2022-10-23T02:04:58.071Z,4.03
2022-10-23T02:08:02.893Z,3.90
2022-10-23T02:11:11.400Z,3.75
2022-10-23T02:14:25.032Z,3.67
2022-10-23T02:17:40.077Z,3.90
2022-10-23T02:20:49.062Z,3.65
2022-10-23T02:24:00.455Z,3.78
2022-10-23T02:27:11.514Z,3.60
2022-10-23T02:30:19.845Z,3.75
2022-10-23T02:33:24.635Z,3.78
2022-10-23T02:36:27.819Z,3.83
2022-10-23T02:39:31.531Z,4.33
2022-10-23T02:42:43.352Z,4.20
2022-10-23T02:46:00.395Z,3.70
2022-10-23T02:49:16.214Z,2.75
2022-10-23T02:52:29.551Z,3.03
2022-10-23T02:55:51.794Z,3.20
2022-10-23T02:59:06.502Z,3.50
2022-10-23T03:02:22.567Z,3.53
2022-10-23T03:05:31.355Z,3.10
2022-10-23T03:08:43.920Z,3.35
2022-10-23T03:11:46.914Z,2.80
2022-10-23T03:14:49.933Z,3.20
2022-10-23T03:17:54.820Z,3.00
2022-10-23T03:20:58.470Z,3.20
2022-10-23T03:24:01.495Z,3.22
2022-10-23T03:27:04.882Z,2.63
2022-10-23T03:30:09.782Z,2.80
2022-10-23T03:33:14.621Z,3.05
2022-10-23T03:36:17.642Z,2.90
2022-10-23T03:39:20.736Z,3.13
2022-10-23T03:42:23.798Z,3.72
2022-10-23T03:45:27.197Z,3.58
2022-10-23T03:48:32.570Z,4.00
2022-10-23T03:51:35.878Z,3.10
2022-10-23T03:54:39.137Z,3.40
2022-10-23T03:57:42.344Z,3.33
2022-10-23T04:00:45.419Z,4.25
2022-10-23T04:03:49.831Z,3.50
2022-10-23T04:06:52.912Z,3.88
2022-10-23T04:09:56.062Z,3.45
2022-10-23T04:12:59.215Z,3.28
2022-10-23T04:16:02.238Z,3.50
2022-10-23T04:19:07.037Z,3.40
2022-10-23T04:22:09.993Z,3.13
2022-10-23T04:25:13.127Z,2.63
2022-10-23T04:28:16.248Z,2.72
2022-10-23T04:31:19.560Z,2.65
2022-10-23T04:34:24.209Z,2.63
2022-10-23T04:37:28.027Z,2.50
2022-10-23T04:40:31.003Z,2.53
2022-10-23T04:43:34.000Z,2.80
2022-10-23T04:46:37.107Z,2.63
2022-10-23T04:49:41.471Z,1.80
2022-10-23T04:52:44.749Z,2.75
2022-10-23T04:55:51.707Z,2.63
2022-10-23T04:58:54.883Z,2.72
2022-10-23T05:01:57.978Z,2.20
2022-10-23T05:05:02.470Z,2.20
2022-10-23T05:08:05.712Z,2.13
2022-10-23T05:11:08.772Z,2.30
2022-10-23T05:14:11.734Z,1.95
2022-10-23T05:17:21.385Z,2.15
2022-10-23T05:20:31.490Z,2.47
2022-10-23T05:23:38.312Z,2.38
2022-10-23T05:26:41.432Z,2.20
2022-10-23T05:29:44.645Z,2.80
2022-10-23T05:32:47.983Z,2.53
2022-10-23T05:35:52.529Z,2.60
2022-10-23T05:38:56.204Z,2.67
2022-10-23T05:41:59.358Z,3.28
2022-10-23T05:45:02.500Z,3.05
2022-10-23T05:48:16.710Z,3.25
2022-10-23T05:54:26.386Z,2.95
2022-10-23T05:57:29.567Z,2.97
2022-10-23T06:00:33.086Z,3.17
2022-10-23T06:03:36.511Z,3.30
2022-10-23T06:06:40.816Z,2.60
2022-10-23T06:09:43.898Z,2.80
2022-10-23T06:12:46.914Z,2.40
2022-10-23T06:15:50.129Z,3.20
2022-10-23T06:18:53.424Z,2.73
2022-10-23T06:21:57.874Z,3.20
2022-10-23T06:25:00.903Z,3.35
2022-10-23T06:28:04.005Z,3.47
2022-10-23T06:31:08.355Z,3.28
2022-10-23T06:34:13.667Z,3.08
2022-10-23T06:37:18.118Z,3.33
2022-10-23T06:40:21.120Z,3.30
2022-10-23T06:43:24.321Z,3.42
2022-10-23T06:46:29.882Z,3.73
2022-10-23T06:49:32.945Z,2.97
2022-10-23T06:52:48.239Z,3.40
2022-10-23T06:55:54.538Z,2.90
2022-10-23T06:58:58.547Z,2.78
2022-10-23T07:02:01.718Z,3.05
2022-10-23T07:05:08.716Z,3.08
2022-10-23T07:08:15.995Z,3.38
2022-10-23T07:11:19.259Z,3.35
2022-10-23T07:14:23.565Z,3.53
2022-10-23T07:17:26.884Z,3.28
2022-10-23T07:20:30.037Z,3.40
2022-10-23T07:23:34.536Z,3.20
2022-10-23T07:26:37.622Z,3.55
2022-10-23T07:29:40.752Z,3.20
2022-10-23T07:32:45.009Z,3.22
2022-10-23T07:35:48.361Z,3.28
2022-10-23T07:38:53.285Z,3.50
2022-10-23T07:41:56.511Z,3.28
2022-10-23T07:44:59.615Z,2.97
2022-10-23T07:48:02.628Z,3.30
2022-10-23T07:51:10.497Z,3.00
2022-10-23T07:54:14.995Z,3.22
2022-10-23T07:57:18.031Z,2.80
2022-10-23T08:00:21.266Z,3.15
2022-10-23T08:03:25.387Z,2.83
2022-10-23T08:06:28.484Z,2.60
2022-10-23T08:09:34.492Z,2.97
2022-10-23T08:12:39.568Z,2.50
2022-10-23T08:15:45.055Z,2.80
2022-10-23T08:18:49.485Z,3.00
2022-10-23T08:21:54.749Z,3.22
2022-10-23T08:24:59.117Z,3.00
2022-10-23T08:28:05.483Z,3.95
2022-10-23T08:31:12.372Z,3.53
2022-10-23T08:34:16.333Z,3.67
2022-10-23T08:37:19.393Z,3.50
2022-10-23T08:40:26.613Z,3.65
2022-10-23T08:43:38.551Z,3.53
2022-10-23T08:46:47.081Z,3.78
2022-10-23T08:49:56.308Z,3.55
2022-10-23T08:53:10.276Z,3.72
2022-10-23T08:56:22.348Z,3.92
2022-10-23T08:59:33.109Z,3.60
2022-10-23T09:02:43.609Z,3.38
2022-10-23T09:06:07.557Z,3.15
2022-10-23T09:09:51.322Z,3.30
2022-10-23T09:13:02.239Z,2.95
2022-10-23T09:16:22.653Z,3.30
2022-10-23T09:19:29.474Z,2.42
2022-10-23T09:22:32.711Z,2.67
2022-10-23T09:25:39.843Z,2.67
2022-10-23T09:28:49.596Z,2.53
2022-10-23T09:31:54.673Z,2.72
2022-10-23T09:34:57.995Z,2.85
2022-10-23T09:38:01.132Z,3.30
2022-10-23T09:41:08.514Z,2.63
2022-10-23T09:44:22.086Z,2.67
2022-10-23T09:47:28.117Z,2.43
2022-10-23T09:50:31.438Z,2.78
2022-10-23T09:53:38.721Z,2.30
2022-10-23T10:00:02.352Z,2.58
2022-10-23T10:03:08.071Z,2.63
2022-10-23T10:06:25.755Z,2.25
2022-10-23T10:09:29.243Z,1.80
2022-10-23T10:12:47.829Z,2.42
2022-10-23T10:15:59.157Z,1.73
2022-10-23T10:19:13.686Z,1.73
2022-10-23T10:25:38.639Z,2.00
2022-10-23T10:29:06.321Z,1.80
2022-10-23T10:32:32.239Z,2.15
2022-10-23T10:35:43.821Z,1.90
2022-10-23T10:38:51.873Z,2.05
2022-10-23T10:42:19.679Z,2.08
2022-10-23T10:45:35.272Z,3.10
2022-10-23T10:48:57.454Z,2.42
2022-10-23T10:52:14.109Z,2.42
2022-10-23T10:55:29.105Z,2.50
2022-10-23T10:58:43.033Z,2.40
2022-10-23T11:01:54.517Z,2.30
2022-10-23T11:05:15.960Z,2.47
2022-10-23T11:08:27.946Z,2.10
2022-10-23T11:11:40.584Z,2.53
2022-10-23T11:14:44.562Z,2.33
2022-10-23T11:17:52.196Z,2.15
2022-10-23T11:21:13.499Z,2.40
2022-10-23T11:25:13.242Z,2.00
2022-10-23T11:28:36.064Z,1.90
2022-10-23T11:31:46.571Z,2.22
2022-10-23T11:35:21.182Z,1.70
2022-10-23T11:38:31.567Z,1.83
2022-10-23T11:41:35.363Z,1.50
2022-10-23T11:44:45.398Z,2.05
2022-10-23T11:47:59.732Z,1.35
2022-10-23T11:54:27.195Z,1.35
2022-10-23T12:00:40.955Z,2.05
2022-10-23T12:03:53.673Z,2.45
2022-10-23T12:07:01.332Z,2.35
2022-10-23T12:10:18.900Z,1.88
2022-10-23T12:13:45.253Z,2.25
2022-10-23T12:16:48.485Z,2.22
2022-10-23T12:19:54.109Z,2.50
2022-10-23T12:23:24.597Z,2.35
2022-10-23T12:26:58.653Z,1.67
2022-10-23T12:30:23.927Z,2.00
2022-10-23T12:33:36.128Z,1.85
2022-10-23T12:36:53.994Z,1.98
2022-10-23T12:39:59.552Z,1.98
2022-10-23T12:43:04.710Z,2.33
2022-10-23T12:46:29.449Z,1.90
2022-10-23T12:49:35.487Z,2.17
2022-10-23T12:52:39.654Z,2.00
2022-10-23T12:59:00.604Z,2.22
2022-10-23T13:02:15.344Z,1.90
2022-10-23T13:05:20.946Z,1.90
2022-10-23T13:08:29.405Z,2.35
2022-10-23T13:11:33.340Z,2.08
2022-10-23T13:14:44.568Z,2.40
2022-10-23T13:18:00.867Z,2.20
2022-10-23T13:21:04.057Z,2.40
2022-10-23T13:24:21.040Z,2.43
2022-10-23T13:27:32.985Z,2.15
2022-10-23T13:30:40.226Z,2.30
2022-10-23T13:33:47.008Z,2.60
2022-10-23T13:37:01.379Z,2.20
2022-10-23T13:43:18.962Z,2.13
2022-10-23T13:46:25.591Z,2.05
2022-10-23T13:49:28.866Z,2.08
2022-10-23T13:52:34.883Z,2.30
2022-10-23T13:55:41.784Z,1.80
2022-10-23T13:58:44.956Z,1.83
2022-10-23T14:01:51.544Z,2.28
2022-10-23T14:04:56.472Z,2.25
2022-10-23T14:07:59.651Z,2.85
2022-10-23T14:11:03.093Z,2.72
2022-10-23T14:14:09.947Z,3.13
2022-10-23T14:17:14.489Z,2.40
2022-10-23T14:20:19.200Z,3.15
2022-10-23T14:23:23.952Z,3.15
2022-10-23T14:26:30.360Z,2.97
2022-10-23T14:29:34.384Z,2.83
2022-10-23T14:32:39.388Z,2.45
2022-10-23T14:35:43.385Z,2.72
2022-10-23T14:38:46.604Z,2.80
2022-10-23T14:41:51.616Z,3.17
2022-10-23T14:44:54.905Z,3.28
2022-10-23T14:48:00.956Z,2.42
2022-10-23T14:51:06.409Z,3.00
2022-10-23T14:55:15.140Z,2.83
2022-10-23T14:58:37.348Z,2.42
2022-10-23T15:01:45.848Z,3.10
2022-10-23T15:04:55.611Z,2.83
2022-10-23T15:07:59.027Z,2.92
2022-10-23T15:11:05.712Z,3.20
2022-10-23T15:14:29.902Z,2.83
2022-10-23T15:17:34.054Z,2.38
2022-10-23T15:20:38.773Z,2.75
2022-10-23T15:23:44.118Z,3.10
2022-10-23T15:26:47.492Z,2.28
2022-10-23T15:30:11.070Z,3.40
2022-10-23T15:33:34.247Z,3.83
2022-10-23T15:37:00.454Z,5.60
2022-10-23T15:44:57.365Z,4.80
2022-10-23T15:53:34.128Z,3.83
2022-10-23T15:56:58.739Z,3.78
2022-10-23T16:00:11.200Z,3.78
2022-10-23T16:03:14.082Z,4.13
2022-10-23T16:06:18.814Z,3.67
2022-10-23T16:09:23.004Z,4.43
2022-10-23T16:15:28.815Z,3.92
2022-10-23T16:18:31.637Z,3.80
2022-10-23T16:21:37.097Z,4.97
2022-10-23T16:24:41.465Z,4.13
2022-10-23T16:27:44.735Z,5.13
2022-10-23T16:30:47.868Z,4.70
2022-10-23T16:33:52.706Z,4.85
2022-10-23T16:40:30.512Z,4.70
2022-10-23T16:43:40.412Z,3.78
2022-10-23T16:46:43.264Z,4.75
2022-10-23T16:49:46.079Z,4.47
2022-10-23T16:52:50.909Z,4.25
2022-10-23T16:55:58.667Z,5.00
2022-10-23T16:59:01.504Z,5.97
2022-10-23T17:02:04.771Z,5.60
2022-10-23T17:05:08.489Z,4.93
2022-10-23T17:08:11.284Z,5.57
2022-10-23T17:11:18.121Z,4.70
2022-10-23T17:14:39.817Z,5.95
2022-10-23T17:24:28.427Z,5.75
2022-10-23T17:28:25.697Z,5.97
2022-10-23T17:31:50.789Z,5.65
2022-10-23T17:35:13.313Z,5.03
2022-10-23T17:38:57.199Z,5.20
2022-10-23T17:42:03.447Z,4.93
2022-10-23T17:45:12.437Z,4.55
2022-10-23T17:48:18.250Z,5.28
2022-10-23T17:51:33.702Z,4.88
2022-10-23T17:57:42.999Z,4.20
2022-10-23T18:00:48.697Z,4.93
2022-10-23T18:03:53.443Z,4.75
2022-10-23T18:06:57.874Z,4.13
2022-10-23T18:10:01.704Z,3.03
2022-10-23T18:13:26.499Z,3.50
2022-10-23T18:16:36.137Z,3.40
2022-10-23T18:19:40.254Z,3.22
2022-10-23T18:22:44.053Z,3.13
2022-10-23T18:25:48.112Z,3.28
2022-10-23T18:28:55.763Z,3.30
2022-10-23T18:32:01.855Z,2.80
2022-10-23T18:35:07.801Z,2.60
2022-10-23T18:38:13.313Z,2.70
2022-10-23T18:41:18.186Z,3.05
2022-10-23T18:44:25.455Z,2.40
2022-10-23T18:47:31.814Z,3.08
2022-10-23T18:50:38.523Z,2.95
2022-10-23T18:56:57.570Z,3.28
2022-10-23T19:00:00.965Z,2.97
2022-10-23T19:03:06.392Z,2.60
2022-10-23T19:06:10.303Z,2.70
2022-10-23T19:09:14.798Z,2.70
2022-10-23T19:12:18.719Z,3.58
2022-10-23T19:15:22.074Z,3.03
2022-10-23T19:18:26.605Z,2.63
2022-10-23T19:21:37.714Z,2.38
2022-10-23T19:24:46.402Z,3.03
2022-10-23T19:27:50.241Z,3.50
2022-10-23T19:30:53.330Z,3.10
2022-10-23T19:33:57.795Z,2.85
2022-10-23T19:37:01.018Z,2.97
2022-10-23T19:40:06.703Z,3.63
2022-10-23T19:43:09.932Z,2.90
2022-10-23T19:46:14.278Z,3.50
2022-10-23T19:52:22.674Z,3.25
2022-10-23T19:55:25.732Z,3.67
2022-10-23T19:58:28.833Z,4.05
2022-10-23T20:01:32.295Z,3.53
2022-10-23T20:04:36.930Z,3.95
2022-10-23T20:07:40.256Z,4.05
2022-10-23T20:10:46.491Z,3.93
2022-10-23T20:13:51.015Z,4.00
2022-10-23T20:16:55.995Z,4.80
2022-10-23T20:20:00.687Z,4.13
2022-10-23T20:23:03.747Z,5.25
2022-10-23T20:26:08.601Z,4.60
2022-10-23T20:29:11.814Z,5.38
2022-10-23T20:32:15.456Z,4.93
2022-10-23T20:35:20.005Z,4.70
2022-10-23T20:38:23.408Z,4.20
2022-10-23T20:41:28.822Z,5.00
2022-10-23T20:44:32.226Z,4.40
2022-10-23T20:47:35.316Z,4.20
2022-10-23T20:50:39.843Z,4.20
2022-10-23T20:53:44.689Z,4.55
2022-10-23T20:56:47.758Z,3.15
2022-10-23T20:59:50.743Z,4.60
2022-10-23T21:02:54.012Z,4.57
2022-10-23T21:06:05.079Z,3.88
2022-10-23T21:12:17.275Z,3.55
2022-10-23T21:15:20.675Z,3.97
2022-10-23T21:18:45.095Z,3.63
2022-10-23T21:24:55.005Z,4.40
2022-10-23T21:27:58.131Z,3.92
2022-10-23T21:31:04.740Z,5.63
2022-10-23T21:34:07.892Z,4.05
2022-10-23T21:37:13.926Z,4.50
2022-10-23T21:40:17.816Z,4.88
2022-10-23T21:43:20.953Z,5.20
2022-10-23T21:46:26.416Z,4.38
2022-10-23T21:49:29.666Z,6.07
2022-10-23T21:52:34.317Z,5.60
2022-10-23T21:55:37.517Z,5.15
2022-10-23T21:58:40.528Z,5.90
2022-10-23T22:01:46.195Z,5.78
2022-10-23T22:04:49.296Z,5.45
2022-10-23T22:07:53.651Z,6.45
2022-10-23T22:10:56.757Z,6.00
2022-10-23T22:14:00.692Z,5.70
2022-10-23T22:17:03.945Z,6.50
2022-10-23T22:20:08.941Z,5.97
2022-10-23T22:23:13.613Z,6.60
2022-10-23T22:26:25.303Z,6.47
2022-10-23T22:29:30.352Z,7.30
2022-10-23T22:32:33.579Z,6.57
2022-10-23T22:35:36.626Z,6.13
2022-10-23T22:38:41.706Z,5.30
2022-10-23T22:41:45.056Z,5.30
2022-10-23T22:44:48.154Z,5.63
2022-10-23T22:47:51.274Z,5.95
2022-10-23T22:50:54.447Z,5.57
2022-10-23T22:54:00.572Z,5.83
2022-10-23T22:57:03.780Z,5.40
2022-10-23T23:00:09.070Z,5.93
2022-10-23T23:03:12.667Z,5.25
2022-10-23T23:06:16.700Z,5.32
2022-10-23T23:09:21.126Z,5.53
2022-10-23T23:12:24.166Z,4.88
2022-10-23T23:15:27.889Z,6.30
2022-10-23T23:18:31.289Z,6.75
2022-10-23T23:21:34.659Z,6.50
2022-10-23T23:24:40.163Z,6.15
2022-10-23T23:27:44.052Z,6.30
2022-10-23T23:30:48.329Z,6.50
2022-10-23T23:33:53.022Z,6.13
2022-10-23T23:36:56.170Z,7.32
2022-10-23T23:40:00.601Z,6.80
2022-10-23T23:43:03.837Z,6.45
2022-10-23T23:46:07.070Z,6.90
2022-10-23T23:49:10.053Z,10.07
2022-10-23T23:52:13.103Z,9.00
2022-10-23T23:55:17.720Z,9.38
2022-10-23T23:58:20.809Z,10.02
